Main page
METAR-TAF:

METAR-TAF

Airports :

São José do Rio Preto Airport

São José do Rio Preto, São Paulo, Brazil

latitude: 20-48-58S, longitude: 049-24-17W, elevation: 543 m

Current weather observation

The report was made 55 minutes ago, at 11:00 UTC
Wind 5 kt from the South
Temperature 17°C
Humidity 82%
Pressure 1020 hPa
Visibility: 3000 m
mist

METAR: SBSR 121100Z 18005KT 3000 BR NSC 17/14 Q1020

Time: 08:55 (11:55 UTC)


TAF: missing

Weather observations and forecasts of more than 4000 airports (METAR and TAF reports).

The available stations are represented by yellow and red dots on the map.

Hover mouse over dot to see the name of the station.

Then click to see weather observations and forecasts.

To change the map : click on the green buttons with a black cross to zoom in, on the green button with a dash to zoom out, or on the green arrows for adjacent maps.


METAR-TAF: